createdAt,value
2017-07-18T12:36:29.858Z,101431.96
2017-07-18T12:38:37.728Z,101427.56
2017-07-18T12:40:48.805Z,101427.25
2017-07-18T12:42:56.191Z,101425.48
2017-07-18T12:45:07.751Z,101418.81
2017-07-18T12:47:15.055Z,101419.42
2017-07-18T12:49:25.612Z,101417.45
2017-07-18T12:51:39.673Z,101409.73
2017-07-18T12:53:49.647Z,101411.30
2017-07-18T12:55:58.215Z,101410.05
2017-07-18T12:58:08.597Z,101406.49
2017-07-18T13:00:20.358Z,101397.39
2017-07-18T13:02:29.544Z,101395.43
2017-07-18T13:04:39.325Z,101388.45
2017-07-18T13:06:46.611Z,101391.47
2017-07-18T13:08:55.470Z,101387.81
2017-07-18T13:11:04.768Z,101381.36
2017-07-18T13:13:17.167Z,101378.64
2017-07-18T13:15:25.392Z,101377.52
2017-07-18T13:17:37.058Z,101381.27
2017-07-18T13:19:45.666Z,101372.19
2017-07-18T13:21:52.954Z,101374.05
2017-07-18T13:24:01.871Z,101369.97
2017-07-18T13:26:12.258Z,101367.12
2017-07-18T13:28:23.234Z,101366.94
2017-07-18T13:30:31.809Z,101356.28
2017-07-18T13:32:42.179Z,101356.28
2017-07-18T13:34:52.157Z,101359.00
2017-07-18T13:37:05.638Z,101352.84
2017-07-18T13:39:19.588Z,101357.58
2017-07-18T13:41:33.080Z,101350.91
2017-07-18T13:43:41.932Z,101345.59
2017-07-18T13:45:50.850Z,101343.86
2017-07-18T13:48:00.588Z,101335.81
2017-07-18T13:50:10.535Z,101338.63
2017-07-18T13:52:19.872Z,101336.56
2017-07-18T13:54:32.062Z,101330.10
2017-07-18T13:56:41.706Z,101336.05
2017-07-18T13:58:50.865Z,101330.48
2017-07-18T14:01:02.843Z,101322.23
2017-07-18T14:03:12.812Z,101330.29
2017-07-18T14:05:21.278Z,101317.54
2017-07-18T14:07:32.247Z,101322.13
2017-07-18T14:09:41.581Z,101315.25
2017-07-18T14:11:50.501Z,101307.71
2017-07-18T14:14:04.721Z,101307.95
2017-07-18T14:16:17.969Z,101308.35
2017-07-18T14:18:26.377Z,101303.73
2017-07-18T14:20:38.604Z,101305.84
2017-07-18T14:22:45.042Z,101304.81
2017-07-18T14:24:50.994Z,101302.39
2017-07-18T14:27:01.519Z,101293.73
2017-07-18T14:29:10.677Z,101292.08
2017-07-18T14:31:20.465Z,101284.05
2017-07-18T14:33:28.314Z,101283.11
2017-07-18T14:35:43.414Z,101274.73
2017-07-18T14:37:52.612Z,101279.22
2017-07-18T14:40:02.043Z,101278.61
2017-07-18T14:42:15.355Z,101273.00
2017-07-18T14:44:26.851Z,101272.29
2017-07-18T14:46:34.848Z,101273.09
2017-07-18T14:51:03.761Z,101266.39
2017-07-18T14:53:14.311Z,101267.23
2017-07-18T14:55:25.495Z,101269.83
2017-07-18T14:57:39.936Z,101261.06
2017-07-18T14:59:50.699Z,101262.23
2017-07-18T15:02:01.100Z,101254.83
2017-07-18T15:04:11.821Z,101249.04
2017-07-18T15:06:22.892Z,101246.13
2017-07-18T15:08:29.460Z,101241.86
2017-07-18T15:10:38.584Z,101241.86
2017-07-18T15:12:47.969Z,101229.65
2017-07-18T15:14:59.603Z,101236.57
2017-07-18T15:17:10.917Z,101238.13
2017-07-18T15:19:21.890Z,101225.92
2017-07-18T15:21:31.180Z,101229.05
2017-07-18T15:23:38.416Z,101225.83
2017-07-18T15:25:47.489Z,101215.16
2017-07-18T15:27:58.786Z,101221.57
2017-07-18T15:30:08.759Z,101222.80
2017-07-18T15:32:18.732Z,101214.97
2017-07-18T15:34:32.708Z,101213.70
2017-07-18T15:36:41.680Z,101204.20
2017-07-18T15:38:53.200Z,101204.20
2017-07-18T15:41:04.169Z,101197.94
2017-07-18T15:43:13.089Z,101194.41
2017-07-18T15:45:25.580Z,101196.59
2017-07-18T15:47:38.552Z,101193.25
2017-07-18T15:49:48.150Z,101186.05
2017-07-18T15:51:55.947Z,101180.61
2017-07-18T15:54:06.470Z,101180.94
2017-07-18T15:56:17.442Z,101178.92
2017-07-18T15:58:26.421Z,101184.78
2017-07-18T16:00:33.447Z,101182.58
2017-07-18T16:02:43.314Z,101177.47
2017-07-18T16:04:52.340Z,101174.23
2017-07-18T16:07:04.315Z,101171.33
2017-07-18T16:09:09.873Z,101175.40
2017-07-18T16:11:21.262Z,101167.95
2017-07-18T16:13:29.353Z,101165.15
2017-07-18T16:15:39.712Z,101165.15
2017-07-18T16:17:50.995Z,101168.91
2017-07-18T16:20:01.753Z,101168.81
2017-07-18T16:22:10.167Z,101169.74
2017-07-18T16:24:22.772Z,101168.48
2017-07-18T16:26:30.665Z,101165.56
2017-07-18T16:28:42.054Z,101165.05
2017-07-18T16:30:53.029Z,101160.56
2017-07-18T16:33:02.320Z,101154.39
2017-07-18T16:35:15.162Z,101158.14
2017-07-18T16:37:21.314Z,101154.91
2017-07-18T16:39:31.466Z,101150.41
2017-07-18T16:41:40.285Z,101159.73
2017-07-18T16:43:47.464Z,101154.39
2017-07-18T16:45:59.842Z,101151.34
2017-07-18T16:48:09.613Z,101148.54
2017-07-18T16:50:19.348Z,101148.45
2017-07-18T16:52:28.769Z,101155.14
2017-07-18T16:54:39.799Z,101146.48
2017-07-18T16:56:50.414Z,101144.70
2017-07-18T16:58:55.685Z,101143.95
2017-07-18T17:01:07.658Z,101150.12
2017-07-18T17:03:17.896Z,101149.61
2017-07-18T17:05:27.607Z,101141.47
2017-07-18T17:07:35.614Z,101143.11
2017-07-18T17:09:46.096Z,101136.97
2017-07-18T17:11:55.223Z,101140.40
2017-07-18T17:14:07.500Z,101146.67
2017-07-18T17:16:21.318Z,101146.16
2017-07-18T17:18:31.447Z,101149.48
2017-07-18T17:20:37.560Z,101146.05
2017-07-18T17:22:47.511Z,101151.91
2017-07-18T17:24:57.370Z,101155.98
2017-07-18T17:27:06.277Z,101152.00
2017-07-18T17:29:14.678Z,101153.97
2017-07-18T17:31:23.502Z,101156.08
2017-07-18T17:33:30.577Z,101148.55
2017-07-18T17:35:37.452Z,101157.11
2017-07-18T17:37:50.212Z,101153.69
2017-07-18T17:39:57.960Z,101148.25
2017-07-18T17:42:06.266Z,101147.70
2017-07-18T17:44:21.021Z,101145.13
2017-07-18T17:46:30.106Z,101151.59
2017-07-18T17:48:41.833Z,101154.63
2017-07-18T17:50:48.611Z,101155.85
2017-07-18T17:52:54.656Z,101157.86
2017-07-18T17:55:02.763Z,101158.05
2017-07-18T17:57:13.976Z,101145.83
2017-07-18T17:59:24.804Z,101151.06
2017-07-18T18:01:33.726Z,101147.61
2017-07-18T18:03:43.777Z,101145.73
2017-07-18T18:05:53.612Z,101150.55
2017-07-18T18:08:05.614Z,101149.48
2017-07-18T18:10:14.786Z,101147.61
2017-07-18T18:12:24.375Z,101147.50
2017-07-18T18:14:36.767Z,101146.15
2017-07-18T18:16:47.439Z,101141.66
2017-07-18T18:18:54.516Z,101146.66
2017-07-18T18:21:04.722Z,101141.66
2017-07-18T18:23:16.762Z,101136.03
2017-07-18T18:25:28.631Z,101134.77
2017-07-18T18:27:38.195Z,101139.36
2017-07-18T18:29:50.578Z,101136.73
2017-07-18T18:32:03.551Z,101133.60
2017-07-18T18:34:13.531Z,101134.86
2017-07-18T18:36:23.499Z,101135.48
2017-07-18T18:38:36.471Z,101136.64
2017-07-18T18:40:46.444Z,101141.23
2017-07-18T18:42:56.920Z,101139.88
2017-07-18T18:45:05.637Z,101138.52
2017-07-18T18:47:15.071Z,101139.36
2017-07-18T18:49:28.340Z,101134.86
2017-07-18T18:51:34.858Z,101132.89
2017-07-18T18:53:48.179Z,101132.77
2017-07-18T18:56:00.792Z,101123.16
2017-07-18T18:58:11.232Z,101128.08
2017-07-18T19:00:22.419Z,101129.95
2017-07-18T19:02:35.541Z,101130.38
2017-07-18T19:04:44.770Z,101129.95
2017-07-18T19:06:56.125Z,101127.56
2017-07-18T19:09:07.097Z,101120.45
2017-07-18T19:11:18.703Z,101123.68
2017-07-18T19:13:31.043Z,101120.88
2017-07-18T19:15:43.018Z,101122.84
2017-07-18T19:17:51.301Z,101126.52
2017-07-18T19:19:59.964Z,101125.98
2017-07-18T19:22:09.938Z,101122.45
2017-07-18T19:24:22.917Z,101121.48
2017-07-18T19:26:31.493Z,101122.84
2017-07-18T19:28:44.863Z,101123.27
2017-07-18T19:30:53.638Z,101119.61
2017-07-18T19:33:03.869Z,101114.83
2017-07-18T19:35:13.322Z,101110.33
2017-07-18T19:37:21.424Z,101119.83
2017-07-18T19:39:29.222Z,101113.47
2017-07-18T19:41:38.703Z,101113.05
2017-07-18T19:43:47.782Z,101108.45
2017-07-18T19:46:01.514Z,101107.91
2017-07-18T19:48:15.624Z,101108.97
2017-07-18T19:50:28.067Z,101109.91
2017-07-18T19:52:40.670Z,101103.55
2017-07-18T19:54:48.154Z,101114.41
2017-07-18T19:56:54.110Z,101106.55
2017-07-18T19:59:04.257Z,101109.59
2017-07-18T20:01:15.464Z,101106.55
2017-07-18T20:03:23.636Z,101111.98
2017-07-18T20:05:33.991Z,101108.03
2017-07-18T20:07:44.386Z,101109.91
2017-07-18T20:09:55.216Z,101103.64
2017-07-18T20:12:04.750Z,101101.86
2017-07-18T20:14:14.317Z,101094.14
2017-07-18T20:16:24.948Z,101096.23
2017-07-18T20:18:36.123Z,101086.19
2017-07-18T20:20:43.510Z,101089.22
2017-07-18T20:22:53.761Z,101091.84
2017-07-18T20:25:00.734Z,101082.34
2017-07-18T20:27:14.147Z,101083.38
2017-07-18T20:29:25.337Z,101083.28
2017-07-18T20:31:32.723Z,101085.57
2017-07-18T20:33:46.066Z,101094.56
2017-07-18T20:35:54.046Z,101084.31
2017-07-18T20:38:07.574Z,101090.06
2017-07-18T20:40:14.015Z,101086.19
2017-07-18T20:42:27.961Z,101087.34
2017-07-18T20:44:41.933Z,101083.70
2017-07-18T20:46:51.906Z,101090.91
2017-07-18T20:49:02.880Z,101082.02
2017-07-18T20:51:13.803Z,101086.51
2017-07-18T20:53:22.826Z,101086.09
2017-07-18T20:55:32.360Z,101081.08
2017-07-18T20:57:41.779Z,101083.28
2017-07-18T20:59:54.748Z,101085.25
2017-07-18T21:02:02.788Z,101081.30
2017-07-18T21:04:12.687Z,101084.73
2017-07-18T21:06:22.907Z,101085.16
2017-07-18T21:08:31.218Z,101076.68
2017-07-18T21:10:41.624Z,101082.53
2017-07-18T21:12:50.797Z,101079.81
2017-07-18T21:15:02.283Z,101075.97
2017-07-18T21:17:12.433Z,101077.94
2017-07-18T21:19:23.837Z,101079.01
